Antler, North Dakota
Current Conditions -  °F | °C
As of 4:58 PM on Saturday 25 Oct 2014 (Local Time) from KMIB Reporting Station
Scattered Clouds Scattered Clouds  
Wind Chill: 16°   Ceiling: Unl
Heat Index: 16°   Visibility: 10mi
Dew Point: -3°   Wind: 3mph
Humidity: 27%   Direction: 140°SE
Pressure: 30.02"   Gusts: NA
Location:  48.97°N, 101.28°W
Report Text: KMIB 252158Z AUTO 14003KT 10SM SCT085 16/M03 A3002 RMK AO2 VIS 2 RWY11 SLP178 T01551034 $
Loading
Personal Weather Stations






























Interactive Weather Map
Tropical Storm Tracking
New forecast layout! Learn more

10-Day Weather Forecast

Advertisements
Track Severe Weather on mobile